createdAt,value
2023-12-10T00:00:00.397Z,5.43
2023-12-10T00:05:04.086Z,4.70
2023-12-10T00:10:10.178Z,5.18
2023-12-10T00:15:13.908Z,5.50
2023-12-10T00:20:17.608Z,5.47
2023-12-10T00:25:22.537Z,4.50
2023-12-10T00:30:26.856Z,5.60
2023-12-10T00:35:30.534Z,6.10
2023-12-10T00:40:35.486Z,5.70
2023-12-10T00:45:39.258Z,4.57
2023-12-10T00:50:42.946Z,5.57
2023-12-10T00:55:48.207Z,4.63
2023-12-10T01:00:52.738Z,4.77
2023-12-10T01:05:56.411Z,5.38
2023-12-10T01:11:01.541Z,5.30
2023-12-10T01:16:05.853Z,5.03
2023-12-10T01:21:10.834Z,4.90
2023-12-10T01:26:16.143Z,4.77
2023-12-10T01:31:20.921Z,5.30
2023-12-10T01:36:25.126Z,4.13
2023-12-10T01:41:30.278Z,5.10
2023-12-10T01:46:33.865Z,5.10
2023-12-10T01:51:38.733Z,4.78
2023-12-10T01:56:55.211Z,5.10
2023-12-10T02:02:04.416Z,5.07
2023-12-10T02:07:08.013Z,5.03
2023-12-10T02:12:13.098Z,4.63
2023-12-10T02:17:16.670Z,4.18
2023-12-10T02:22:23.282Z,3.77
2023-12-10T02:27:28.551Z,4.18
2023-12-10T02:32:32.427Z,4.40
2023-12-10T02:37:36.191Z,4.80
2023-12-10T02:42:41.248Z,4.30
2023-12-10T02:47:44.972Z,4.45
2023-12-10T02:52:48.597Z,5.00
2023-12-10T02:57:53.688Z,4.63
2023-12-10T03:02:57.436Z,3.97
2023-12-10T03:08:01.041Z,3.90
2023-12-10T03:13:06.061Z,3.92
2023-12-10T03:18:11.059Z,4.80
2023-12-10T03:23:17.395Z,4.33
2023-12-10T03:28:26.807Z,4.00
2023-12-10T03:33:33.186Z,4.20
2023-12-10T03:38:36.890Z,3.20
2023-12-10T03:43:41.840Z,3.80
2023-12-10T03:48:45.530Z,3.83
2023-12-10T03:53:49.175Z,3.40
2023-12-10T03:58:54.169Z,3.80
2023-12-10T04:03:57.839Z,3.33
2023-12-10T04:09:01.441Z,2.93
2023-12-10T04:14:10.102Z,3.80
2023-12-10T04:19:13.889Z,4.17
2023-12-10T04:24:18.066Z,3.47
2023-12-10T04:29:23.029Z,5.10
2023-12-10T04:34:26.796Z,4.47
2023-12-10T04:39:30.577Z,5.07
2023-12-10T04:44:35.556Z,4.13
2023-12-10T04:49:39.347Z,3.80
2023-12-10T04:54:43.048Z,4.57
2023-12-10T04:59:47.987Z,3.60
2023-12-10T05:04:51.655Z,4.00
2023-12-10T05:09:55.708Z,4.20
2023-12-10T05:15:00.646Z,4.00
2023-12-10T05:20:06.518Z,3.83
2023-12-10T05:25:12.698Z,3.57
2023-12-10T05:30:17.823Z,4.07
2023-12-10T05:35:21.501Z,3.93
2023-12-10T05:40:26.857Z,6.20
2023-12-10T05:45:31.989Z,5.03
2023-12-10T05:50:35.586Z,4.20
2023-12-10T05:55:39.153Z,4.83
2023-12-10T06:00:44.168Z,4.83
2023-12-10T06:05:48.069Z,3.57
2023-12-10T06:10:51.728Z,3.83
2023-12-10T06:15:57.581Z,4.43
2023-12-10T06:21:01.240Z,3.67
2023-12-10T06:26:04.949Z,3.97
2023-12-10T06:31:10.342Z,4.17
2023-12-10T06:36:14.075Z,3.50
2023-12-10T06:41:17.674Z,3.77
2023-12-10T06:46:22.742Z,3.50
2023-12-10T06:51:26.345Z,4.07
2023-12-10T06:56:30.151Z,3.73
2023-12-10T07:01:35.405Z,3.43
2023-12-10T07:06:39.250Z,3.40
2023-12-10T07:11:42.888Z,3.20
2023-12-10T07:16:47.907Z,2.93
2023-12-10T07:21:54.050Z,2.87
2023-12-10T07:26:58.107Z,3.40
2023-12-10T07:32:03.387Z,2.97
2023-12-10T07:37:07.057Z,3.17
2023-12-10T07:42:10.664Z,3.50
2023-12-10T07:47:15.603Z,2.93
2023-12-10T07:52:19.593Z,3.03
2023-12-10T07:57:23.242Z,3.20
2023-12-10T08:02:28.443Z,3.50
2023-12-10T08:07:32.334Z,2.90
2023-12-10T08:12:36.944Z,4.13
2023-12-10T08:17:43.024Z,2.80
2023-12-10T08:22:49.186Z,3.50
2023-12-10T08:27:52.892Z,3.10
2023-12-10T08:32:57.942Z,3.70
2023-12-10T08:38:01.570Z,3.93
2023-12-10T08:43:05.153Z,3.80
2023-12-10T08:48:10.189Z,3.47
2023-12-10T08:53:13.852Z,4.03
2023-12-10T08:58:17.908Z,3.27
2023-12-10T09:03:22.962Z,3.33
2023-12-10T09:08:27.920Z,2.85
2023-12-10T09:13:31.524Z,3.40
2023-12-10T09:18:36.608Z,3.67
2023-12-10T09:23:40.236Z,2.75
2023-12-10T09:28:43.816Z,3.57
2023-12-10T09:33:51.080Z,3.87
2023-12-10T09:38:54.672Z,3.50
2023-12-10T09:44:00.233Z,3.93
2023-12-10T09:49:05.985Z,3.43
2023-12-10T09:54:09.670Z,3.53
2023-12-10T09:59:13.251Z,3.80
2023-12-10T10:04:19.123Z,3.87
2023-12-10T10:09:28.770Z,4.30
2023-12-10T10:14:38.844Z,3.70
2023-12-10T10:19:43.932Z,3.27
2023-12-10T10:24:47.603Z,2.93
2023-12-10T10:29:54.670Z,3.80
2023-12-10T10:35:04.199Z,3.23
2023-12-10T10:40:09.054Z,3.60
2023-12-10T10:45:12.758Z,3.28
2023-12-10T10:50:24.043Z,4.10
2023-12-10T10:55:29.087Z,3.10
2023-12-10T11:00:37.065Z,3.83
2023-12-10T11:05:42.934Z,3.60
2023-12-10T11:10:52.412Z,3.87
2023-12-10T11:15:59.717Z,3.50
2023-12-10T11:21:05.005Z,3.37
2023-12-10T11:26:08.683Z,3.90
2023-12-10T11:31:13.042Z,3.40
2023-12-10T11:36:35.589Z,3.93
2023-12-10T11:41:51.987Z,3.80
2023-12-10T11:47:06.611Z,3.83
2023-12-10T11:52:12.811Z,3.63
2023-12-10T11:57:16.737Z,3.67
2023-12-10T12:02:20.295Z,4.47
2023-12-10T12:07:29.625Z,3.60
2023-12-10T12:12:38.326Z,3.75
2023-12-10T12:17:45.139Z,3.20
2023-12-10T12:22:51.471Z,3.83
2023-12-10T12:27:55.120Z,4.07
2023-12-10T12:32:58.867Z,4.43
2023-12-10T12:38:04.088Z,3.47
2023-12-10T12:43:07.717Z,4.25
2023-12-10T12:48:11.464Z,4.35
2023-12-10T12:53:16.485Z,4.05
2023-12-10T12:58:20.207Z,4.18
2023-12-10T13:03:24.273Z,4.75
2023-12-10T13:08:29.271Z,4.03
2023-12-10T13:13:32.894Z,4.15
2023-12-10T13:18:36.662Z,4.68
2023-12-10T13:23:41.655Z,4.17
2023-12-10T13:28:45.447Z,5.13
2023-12-10T13:33:49.183Z,4.83
2023-12-10T13:38:54.207Z,4.45
2023-12-10T13:43:57.864Z,4.82
2023-12-10T13:49:02.566Z,4.50
2023-12-10T13:54:07.702Z,4.93
2023-12-10T13:59:11.247Z,5.15
2023-12-10T14:04:14.877Z,5.37
2023-12-10T14:09:19.964Z,5.18
2023-12-10T14:14:23.740Z,6.88
2023-12-10T14:19:28.165Z,6.00
2023-12-10T14:24:36.179Z,5.20
2023-12-10T14:29:39.814Z,5.88
2023-12-10T14:34:44.510Z,5.35
2023-12-10T14:39:49.718Z,5.38
2023-12-10T14:44:53.453Z,5.00
2023-12-10T14:49:57.124Z,5.82
2023-12-10T14:55:02.107Z,5.68
2023-12-10T15:00:07.534Z,4.82
2023-12-10T15:05:11.165Z,5.00
2023-12-10T15:10:16.199Z,5.47
2023-12-10T15:15:21.692Z,4.93
2023-12-10T15:20:25.560Z,5.37
2023-12-10T15:25:30.606Z,5.40
2023-12-10T15:30:36.642Z,4.88
2023-12-10T15:35:40.706Z,5.40
2023-12-10T15:40:45.958Z,5.70
2023-12-10T15:45:49.647Z,4.57
2023-12-10T15:50:53.266Z,4.70
2023-12-10T15:55:58.425Z,4.18
2023-12-10T16:01:03.204Z,5.17
2023-12-10T16:06:07.464Z,8.20
2023-12-10T16:12:58.451Z,6.60
2023-12-10T16:18:02.303Z,5.50
2023-12-10T16:23:05.962Z,6.83
2023-12-10T16:28:11.150Z,5.15
2023-12-10T16:33:14.813Z,3.95
2023-12-10T16:38:18.557Z,4.18
2023-12-10T16:43:23.619Z,4.97
2023-12-10T16:48:27.901Z,4.20
2023-12-10T16:53:35.288Z,4.18
2023-12-10T16:58:40.202Z,4.60
2023-12-10T17:03:44.010Z,4.47
2023-12-10T17:08:47.618Z,3.77
2023-12-10T17:13:52.573Z,3.53
2023-12-10T17:18:56.331Z,3.47
2023-12-10T17:23:59.945Z,3.38
2023-12-10T17:29:04.950Z,3.20
2023-12-10T17:34:08.662Z,3.20
2023-12-10T17:39:13.716Z,2.88
2023-12-10T17:44:20.434Z,3.33
2023-12-10T17:49:24.170Z,3.17
2023-12-10T17:54:27.833Z,3.20
2023-12-10T17:59:34.881Z,3.10
2023-12-10T18:04:38.488Z,2.77
2023-12-10T18:09:42.555Z,2.83
2023-12-10T18:14:47.570Z,3.63
2023-12-10T18:19:51.249Z,3.00
2023-12-10T18:24:55.857Z,3.67
2023-12-10T18:30:01.022Z,2.90
2023-12-10T18:35:04.841Z,3.90
2023-12-10T18:40:09.833Z,3.00
2023-12-10T18:45:14.826Z,3.27
2023-12-10T18:50:18.576Z,3.57
2023-12-10T18:55:22.230Z,2.67
2023-12-10T19:00:27.444Z,3.27
2023-12-10T19:05:31.153Z,3.63
2023-12-10T19:10:34.997Z,2.83
2023-12-10T19:15:40.128Z,2.97
2023-12-10T19:20:43.943Z,2.53
2023-12-10T19:25:47.612Z,4.80
2023-12-10T19:30:54.049Z,4.37
2023-12-10T19:35:57.703Z,3.10
2023-12-10T19:41:01.370Z,2.80
2023-12-10T19:46:06.602Z,4.03
2023-12-10T19:51:10.355Z,2.27
2023-12-10T19:56:14.056Z,2.23
2023-12-10T20:01:19.417Z,2.97
2023-12-10T20:06:23.153Z,2.57
2023-12-10T20:11:26.892Z,1.80
2023-12-10T20:16:31.877Z,3.23
2023-12-10T20:21:36.896Z,1.60
2023-12-10T20:26:44.424Z,1.80
2023-12-10T20:31:49.603Z,2.20
2023-12-10T20:36:53.206Z,1.80
2023-12-10T20:41:56.936Z,2.30
2023-12-10T20:47:02.100Z,1.53
2023-12-10T20:52:06.410Z,2.60
2023-12-10T20:57:10.116Z,1.27
2023-12-10T21:02:15.145Z,2.20
2023-12-10T21:07:18.800Z,2.37
2023-12-10T21:12:22.412Z,1.85
2023-12-10T21:17:27.368Z,1.73
2023-12-10T21:22:31.135Z,2.10
2023-12-10T21:27:34.752Z,1.77
2023-12-10T21:32:39.965Z,1.47
2023-12-10T21:37:43.587Z,1.50
2023-12-10T21:42:47.195Z,1.40
2023-12-10T21:47:52.833Z,2.10
2023-12-10T21:52:56.608Z,2.00
2023-12-10T21:58:00.349Z,1.75
2023-12-10T22:03:05.369Z,1.95
2023-12-10T22:08:09.062Z,2.20
2023-12-10T22:13:12.773Z,2.25
2023-12-10T22:18:18.007Z,2.50
2023-12-10T22:23:21.645Z,2.05
2023-12-10T22:28:25.256Z,2.60
2023-12-10T22:33:30.846Z,2.80
2023-12-10T22:38:41.203Z,2.90
2023-12-10T22:43:44.886Z,3.00
2023-12-10T22:48:50.500Z,3.00
2023-12-10T22:53:54.195Z,3.23
2023-12-10T22:58:57.774Z,3.50
2023-12-10T23:04:02.862Z,3.57
2023-12-10T23:09:07.439Z,3.05
2023-12-10T23:14:11.172Z,3.10
2023-12-10T23:19:16.338Z,2.78
2023-12-10T23:24:19.999Z,2.53
2023-12-10T23:29:23.621Z,2.90
2023-12-10T23:34:28.608Z,3.05
2023-12-10T23:39:32.248Z,2.80
2023-12-10T23:44:35.836Z,2.65
2023-12-10T23:49:40.840Z,2.90
2023-12-10T23:54:44.573Z,2.65
2023-12-10T23:59:48.669Z,2.60
